createdAt,value
2018-10-19T00:00:18.876Z,0.00
2018-10-19T00:01:18.797Z,0.00
2018-10-19T00:02:18.737Z,0.00
2018-10-19T00:03:18.648Z,0.00
2018-10-19T00:04:18.568Z,0.00
2018-10-19T00:05:18.487Z,0.00
2018-10-19T00:06:18.407Z,0.00
2018-10-19T00:07:18.329Z,0.00
2018-10-19T00:08:18.254Z,0.00
2018-10-19T00:09:18.178Z,0.00
2018-10-19T00:10:18.101Z,0.00
2018-10-19T00:11:18.018Z,0.00
2018-10-19T00:12:17.940Z,0.00
2018-10-19T00:13:17.867Z,0.00
2018-10-19T00:14:17.781Z,0.00
2018-10-19T00:15:17.707Z,0.00
2018-10-19T00:16:17.632Z,0.00
2018-10-19T00:17:17.547Z,0.00
2018-10-19T00:18:17.477Z,0.00
2018-10-19T00:19:17.392Z,0.00
2018-10-19T00:20:17.318Z,0.00
2018-10-19T00:21:17.242Z,0.00
2018-10-19T00:22:17.155Z,0.00
2018-10-19T00:23:17.083Z,0.00
2018-10-19T00:24:17.000Z,0.00
2018-10-19T00:25:16.922Z,0.00
2018-10-19T00:26:16.847Z,0.00
2018-10-19T00:27:16.842Z,0.00
2018-10-19T00:28:16.687Z,0.00
2018-10-19T00:29:16.675Z,0.00
2018-10-19T00:30:16.533Z,0.00
2018-10-19T00:31:16.461Z,0.00
2018-10-19T00:32:16.380Z,0.00
2018-10-19T00:33:16.381Z,0.00
2018-10-19T00:34:16.217Z,0.00
2018-10-19T00:35:16.147Z,0.00
2018-10-19T00:36:16.065Z,0.00
2018-10-19T00:37:16.010Z,0.00
2018-10-19T00:38:15.925Z,0.00
2018-10-19T00:39:15.985Z,0.00
2018-10-19T00:40:15.752Z,0.00
2018-10-19T00:41:15.770Z,0.00
2018-10-19T00:42:15.590Z,0.00
2018-10-19T00:43:15.513Z,0.00
2018-10-19T00:44:15.435Z,0.00
2018-10-19T00:45:15.450Z,0.00
2018-10-19T00:46:15.277Z,0.00
2018-10-19T00:47:15.330Z,0.00
2018-10-19T00:48:15.136Z,0.00
2018-10-19T00:49:15.063Z,0.00
2018-10-19T00:50:14.970Z,0.00
2018-10-19T00:51:14.964Z,0.00
2018-10-19T00:52:14.813Z,0.00
2018-10-19T00:53:14.836Z,0.00
2018-10-19T00:54:14.650Z,0.00
2018-10-19T00:55:14.580Z,0.00
2018-10-19T00:56:14.499Z,0.00
2018-10-19T00:57:14.523Z,0.00
2018-10-19T00:58:14.337Z,0.00
2018-10-19T00:59:14.348Z,0.00
2018-10-19T01:00:14.181Z,0.00
2018-10-19T01:01:14.105Z,0.00
2018-10-19T01:02:14.028Z,0.00
2018-10-19T01:03:14.016Z,0.00
2018-10-19T01:04:13.868Z,0.00
2018-10-19T01:05:13.943Z,0.00
2018-10-19T01:06:13.714Z,0.00
2018-10-19T01:07:13.631Z,0.00
2018-10-19T01:08:13.553Z,0.00
2018-10-19T01:09:13.502Z,0.00
2018-10-19T01:10:13.395Z,0.00
2018-10-19T01:11:13.390Z,0.00
2018-10-19T01:12:13.241Z,0.00
2018-10-19T01:13:13.170Z,0.00
2018-10-19T01:14:13.083Z,0.00
2018-10-19T01:15:13.097Z,0.00
2018-10-19T01:16:12.923Z,0.00
2018-10-19T01:17:12.942Z,0.00
2018-10-19T01:18:12.774Z,0.00
2018-10-19T01:19:12.693Z,0.00
2018-10-19T01:20:12.610Z,0.00
2018-10-19T01:21:12.568Z,0.00
2018-10-19T01:22:12.460Z,0.00
2018-10-19T01:23:12.560Z,0.00
2018-10-19T01:24:12.300Z,0.00
2018-10-19T01:25:12.229Z,0.00
2018-10-19T01:26:12.150Z,0.00
2018-10-19T01:27:12.182Z,0.00
2018-10-19T01:28:11.987Z,0.00
2018-10-19T01:29:11.936Z,0.00
2018-10-19T01:30:11.832Z,0.00
2018-10-19T01:31:11.754Z,0.00
2018-10-19T01:32:11.672Z,0.00
2018-10-19T01:33:11.652Z,0.00
2018-10-19T01:34:11.513Z,0.00
2018-10-19T01:35:11.442Z,0.00
2018-10-19T01:36:11.358Z,0.00
2018-10-19T01:37:11.292Z,0.00
2018-10-19T01:38:11.227Z,0.00
2018-10-19T01:39:11.207Z,0.00
2018-10-19T01:40:11.042Z,0.00
2018-10-19T01:41:11.048Z,0.00
2018-10-19T01:42:10.885Z,0.00
2018-10-19T01:43:10.806Z,0.00
2018-10-19T01:44:10.732Z,0.00
2018-10-19T01:45:10.691Z,0.00
2018-10-19T01:46:10.570Z,0.00
2018-10-19T01:47:10.536Z,0.00
2018-10-19T01:48:10.413Z,0.00
2018-10-19T01:49:10.343Z,0.00
2018-10-19T01:50:10.259Z,0.00
2018-10-19T01:51:10.211Z,0.00
2018-10-19T01:52:10.099Z,0.00
2018-10-19T01:53:10.058Z,0.00
2018-10-19T01:54:09.943Z,0.00
2018-10-19T01:55:09.863Z,0.00
2018-10-19T01:56:09.786Z,0.00
2018-10-19T01:57:09.838Z,0.00
2018-10-19T01:58:09.628Z,0.00
2018-10-19T01:59:09.664Z,0.00
2018-10-19T02:00:09.472Z,0.00
2018-10-19T02:01:09.396Z,0.00
2018-10-19T02:02:09.317Z,0.00
2018-10-19T02:03:09.275Z,0.00
2018-10-19T02:04:09.159Z,0.00
2018-10-19T02:05:09.183Z,0.00
2018-10-19T02:06:08.996Z,0.00
2018-10-19T02:07:08.922Z,0.00
2018-10-19T02:08:08.841Z,0.00
2018-10-19T02:09:08.854Z,0.00
2018-10-19T02:10:08.683Z,0.00
2018-10-19T02:11:08.688Z,0.00
2018-10-19T02:12:08.533Z,0.00
2018-10-19T02:13:08.453Z,0.00
2018-10-19T02:14:08.367Z,0.00
2018-10-19T02:15:08.394Z,0.00
2018-10-19T02:16:08.212Z,0.00
2018-10-19T02:17:08.181Z,0.00
2018-10-19T02:18:08.055Z,0.00
2018-10-19T02:19:07.979Z,0.00
2018-10-19T02:20:07.896Z,0.00
2018-10-19T02:21:07.882Z,0.00
2018-10-19T02:22:07.739Z,0.00
2018-10-19T02:23:07.739Z,0.00
2018-10-19T02:24:07.582Z,0.00
2018-10-19T02:25:07.502Z,0.00
2018-10-19T02:26:07.424Z,0.00
2018-10-19T02:27:07.360Z,0.00
2018-10-19T02:28:07.265Z,0.00
2018-10-19T02:29:07.278Z,0.00
2018-10-19T02:30:07.124Z,0.00
2018-10-19T02:31:07.033Z,0.00
2018-10-19T02:32:06.952Z,0.00
2018-10-19T02:33:06.952Z,0.00
2018-10-19T02:34:06.794Z,0.00
2018-10-19T02:35:06.781Z,0.00
2018-10-19T02:36:06.635Z,0.00
2018-10-19T02:37:06.588Z,0.00
2018-10-19T02:38:06.490Z,0.00
2018-10-19T02:39:06.423Z,0.00
2018-10-19T02:40:06.341Z,0.00
2018-10-19T02:41:06.312Z,0.00
2018-10-19T02:42:06.166Z,0.00
2018-10-19T02:43:06.085Z,0.00
2018-10-19T02:44:06.011Z,0.00
2018-10-19T02:45:06.013Z,0.00
2018-10-19T02:46:05.848Z,0.00
2018-10-19T02:47:05.840Z,0.00
2018-10-19T02:48:05.689Z,0.00
2018-10-19T02:49:05.613Z,0.00
2018-10-19T02:50:05.535Z,0.00
2018-10-19T02:51:05.504Z,0.00
2018-10-19T02:52:05.376Z,0.00
2018-10-19T02:53:05.456Z,0.00
2018-10-19T02:54:05.219Z,0.00
2018-10-19T02:55:05.140Z,0.00
2018-10-19T02:56:05.061Z,0.00
2018-10-19T02:57:05.009Z,0.00
2018-10-19T02:58:04.903Z,0.00
2018-10-19T02:59:04.869Z,0.00
2018-10-19T03:00:04.749Z,0.00
2018-10-19T03:01:04.677Z,0.00
2018-10-19T03:02:04.593Z,0.00
2018-10-19T03:03:04.526Z,0.00
2018-10-19T03:04:04.430Z,0.00
2018-10-19T03:05:04.377Z,0.00
2018-10-19T03:06:04.280Z,0.00
2018-10-19T03:07:04.202Z,0.00
2018-10-19T03:08:04.121Z,0.00
2018-10-19T03:09:04.087Z,0.00
2018-10-19T03:10:03.957Z,0.00
2018-10-19T03:11:03.886Z,0.00
2018-10-19T03:12:03.808Z,0.00
2018-10-19T03:13:03.721Z,0.00
2018-10-19T03:14:03.645Z,0.00
2018-10-19T03:15:03.570Z,0.00
2018-10-19T03:16:03.485Z,0.00
2018-10-19T03:17:03.427Z,0.00
2018-10-19T03:18:03.326Z,0.00
2018-10-19T03:19:03.248Z,0.00
2018-10-19T03:20:03.168Z,0.00
2018-10-19T03:21:03.102Z,0.00
2018-10-19T03:22:03.008Z,0.00
2018-10-19T03:23:02.967Z,0.00
2018-10-19T03:24:02.854Z,0.00
2018-10-19T03:25:02.789Z,0.00
2018-10-19T03:26:02.701Z,0.00
2018-10-19T03:27:02.679Z,0.00
2018-10-19T03:28:02.536Z,0.00
2018-10-19T03:29:02.564Z,0.00
2018-10-19T03:30:02.381Z,0.00
2018-10-19T03:31:02.588Z,0.00
2018-10-19T03:32:02.223Z,0.00
2018-10-19T03:33:02.153Z,0.00
2018-10-19T03:34:02.065Z,0.00
2018-10-19T03:35:02.040Z,0.00
2018-10-19T03:36:01.905Z,0.00
2018-10-19T03:37:01.827Z,0.00
2018-10-19T03:38:01.748Z,0.00
2018-10-19T03:39:01.740Z,0.00
2018-10-19T03:40:01.593Z,0.00
2018-10-19T03:41:01.561Z,0.00
2018-10-19T03:42:01.446Z,0.00
2018-10-19T03:43:01.364Z,0.00
2018-10-19T03:44:01.285Z,0.00
2018-10-19T03:45:01.259Z,0.00
2018-10-19T03:46:01.149Z,0.00
2018-10-19T03:47:01.092Z,0.00
2018-10-19T03:48:00.959Z,0.00
2018-10-19T03:49:00.914Z,0.00
2018-10-19T03:50:00.801Z,0.00
2018-10-19T03:51:00.750Z,0.00
2018-10-19T03:52:00.643Z,0.00
2018-10-19T03:53:00.582Z,0.00
2018-10-19T03:54:00.481Z,0.00
2018-10-19T03:55:00.438Z,0.00
2018-10-19T03:56:00.337Z,0.00
2018-10-19T03:57:00.312Z,0.00
2018-10-19T03:58:00.169Z,0.00
2018-10-19T03:59:00.135Z,0.00
2018-10-19T04:00:00.017Z,0.00
2018-10-19T04:00:59.933Z,0.00
2018-10-19T04:01:59.851Z,0.00
2018-10-19T04:02:59.836Z,0.00
2018-10-19T04:03:59.695Z,0.00
2018-10-19T04:04:59.663Z,0.00
2018-10-19T04:05:59.536Z,0.00
2018-10-19T04:06:59.465Z,0.00
2018-10-19T04:07:59.381Z,0.00
2018-10-19T04:08:59.338Z,0.00
2018-10-19T04:09:59.218Z,0.00
2018-10-19T04:10:59.247Z,0.00
2018-10-19T04:11:59.060Z,0.00
2018-10-19T04:12:58.982Z,0.00
2018-10-19T04:13:58.906Z,0.00
2018-10-19T04:14:58.901Z,0.00
2018-10-19T04:15:58.746Z,0.00
2018-10-19T04:16:58.747Z,0.00
2018-10-19T04:17:58.588Z,0.00
2018-10-19T04:18:58.533Z,0.00
2018-10-19T04:19:58.437Z,0.00
2018-10-19T04:20:58.401Z,0.00
2018-10-19T04:21:58.274Z,0.00
2018-10-19T04:22:58.214Z,0.00
2018-10-19T04:23:58.115Z,0.00
2018-10-19T04:24:58.036Z,0.00
2018-10-19T04:25:57.961Z,0.00
2018-10-19T04:26:57.915Z,0.00
2018-10-19T04:27:57.799Z,0.00
2018-10-19T04:28:57.780Z,0.00
2018-10-19T04:29:57.639Z,0.00
2018-10-19T04:30:57.564Z,0.00
2018-10-19T04:31:57.492Z,0.00
2018-10-19T04:32:57.490Z,0.00
2018-10-19T04:33:57.321Z,0.00
2018-10-19T04:34:57.319Z,0.00
2018-10-19T04:35:57.162Z,0.00
2018-10-19T04:36:57.084Z,0.00
2018-10-19T04:37:57.014Z,0.00
2018-10-19T04:38:56.943Z,0.00
2018-10-19T04:39:56.850Z,0.00
2018-10-19T04:40:56.810Z,0.00
2018-10-19T04:41:56.751Z,0.00
2018-10-19T04:42:56.613Z,0.00
2018-10-19T04:43:56.529Z,0.00
2018-10-19T04:44:56.511Z,0.00
2018-10-19T04:45:56.371Z,0.00
2018-10-19T04:46:56.346Z,0.00
2018-10-19T04:47:56.216Z,0.00
2018-10-19T04:48:56.133Z,0.00
2018-10-19T04:49:56.059Z,0.00
2018-10-19T04:50:55.998Z,0.00
2018-10-19T04:51:55.898Z,0.00
2018-10-19T04:52:55.877Z,0.00
2018-10-19T04:53:55.737Z,0.00
2018-10-19T04:54:55.677Z,0.00
2018-10-19T04:55:55.581Z,0.00
2018-10-19T04:56:55.548Z,0.00
2018-10-19T04:57:55.420Z,0.00
2018-10-19T04:58:55.401Z,0.00
2018-10-19T04:59:55.266Z,0.00
2018-10-19T05:00:55.184Z,0.00
2018-10-19T05:01:55.105Z,0.00
2018-10-19T05:02:55.037Z,0.00
2018-10-19T05:03:54.955Z,0.00
2018-10-19T05:04:54.899Z,0.00
2018-10-19T05:05:54.869Z,0.00
2018-10-19T05:06:54.716Z,0.00
2018-10-19T05:07:54.638Z,0.00
2018-10-19T05:08:54.574Z,0.00
2018-10-19T05:09:54.480Z,0.00
2018-10-19T05:10:54.450Z,0.00
2018-10-19T05:11:54.314Z,0.00
2018-10-19T05:12:54.291Z,0.00
2018-10-19T05:13:54.160Z,0.00
2018-10-19T05:14:54.081Z,0.00
2018-10-19T05:15:53.999Z,0.00
2018-10-19T05:16:53.919Z,0.00
2018-10-19T05:17:53.833Z,0.00
2018-10-19T05:18:53.760Z,0.00
2018-10-19T05:19:53.691Z,0.00
2018-10-19T05:20:53.600Z,0.00
2018-10-19T05:21:53.518Z,0.00
2018-10-19T05:22:53.455Z,0.00
2018-10-19T05:23:53.364Z,0.00
2018-10-19T05:24:53.396Z,0.00
2018-10-19T05:25:53.210Z,0.00
2018-10-19T05:26:53.127Z,0.00
2018-10-19T05:27:53.040Z,0.00
2018-10-19T05:28:52.964Z,0.00
2018-10-19T05:29:52.883Z,0.00
2018-10-19T05:30:52.809Z,0.00
2018-10-19T05:31:52.729Z,0.00
2018-10-19T05:32:52.657Z,0.00
2018-10-19T05:33:52.562Z,0.00
2018-10-19T05:34:52.530Z,0.00
2018-10-19T05:35:52.412Z,0.00
2018-10-19T05:36:52.328Z,0.00
2018-10-19T05:37:52.283Z,5.63
2018-10-19T05:38:52.181Z,5.63
2018-10-19T05:39:52.095Z,5.63
2018-10-19T05:40:52.025Z,5.63
2018-10-19T05:41:51.937Z,5.63
2018-10-19T05:42:51.869Z,5.63
2018-10-19T05:43:51.770Z,5.63
2018-10-19T05:44:51.715Z,5.63
2018-10-19T05:45:51.608Z,5.63
2018-10-19T05:46:51.567Z,11.25
2018-10-19T05:47:51.452Z,11.25
2018-10-19T05:48:51.372Z,11.25
2018-10-19T05:49:51.295Z,11.25
2018-10-19T05:50:51.230Z,11.25
2018-10-19T05:51:51.137Z,11.25
2018-10-19T05:52:51.054Z,11.25
2018-10-19T05:53:51.005Z,16.88
2018-10-19T05:54:50.910Z,16.88
2018-10-19T05:55:50.817Z,16.88
2018-10-19T05:56:50.736Z,16.88
2018-10-19T05:57:50.655Z,16.88
2018-10-19T05:58:50.592Z,16.88
2018-10-19T05:59:50.498Z,22.50
2018-10-19T06:00:50.434Z,22.50
2018-10-19T06:01:50.342Z,22.50
2018-10-19T06:02:50.277Z,22.50
2018-10-19T06:03:50.204Z,22.50
2018-10-19T06:04:50.100Z,28.13
2018-10-19T06:05:50.018Z,28.13
2018-10-19T06:06:49.943Z,28.13
2018-10-19T06:07:49.863Z,28.13
2018-10-19T06:08:49.781Z,28.13
2018-10-19T06:09:49.703Z,33.75
2018-10-19T06:10:49.626Z,33.75
2018-10-19T06:11:49.544Z,33.75
2018-10-19T06:12:49.465Z,33.75
2018-10-19T06:13:49.413Z,33.75
2018-10-19T06:14:49.309Z,39.38
2018-10-19T06:15:49.227Z,39.38
2018-10-19T06:16:49.149Z,39.38
2018-10-19T06:17:49.069Z,39.38
2018-10-19T06:18:49.000Z,39.38
2018-10-19T06:19:48.914Z,45.00
2018-10-19T06:20:48.834Z,45.00
2018-10-19T06:21:48.752Z,45.00
2018-10-19T06:22:48.674Z,45.00
2018-10-19T06:23:48.590Z,50.63
2018-10-19T06:24:48.515Z,50.63
2018-10-19T06:25:48.468Z,50.63
2018-10-19T06:26:48.367Z,50.63
2018-10-19T06:27:48.272Z,50.63
2018-10-19T06:28:48.194Z,56.25
2018-10-19T06:29:48.115Z,56.25
2018-10-19T06:30:48.035Z,56.25
2018-10-19T06:31:47.956Z,56.25
2018-10-19T06:32:47.878Z,61.88
2018-10-19T06:33:47.879Z,61.88
2018-10-19T06:34:47.722Z,61.88
2018-10-19T06:35:47.640Z,61.88
2018-10-19T06:36:47.561Z,61.88
2018-10-19T06:37:47.479Z,67.50
2018-10-19T06:38:47.409Z,67.50
2018-10-19T06:39:47.320Z,67.50
2018-10-19T06:40:47.251Z,67.50
2018-10-19T06:41:47.166Z,67.50
2018-10-19T06:42:47.089Z,73.13
2018-10-19T06:43:47.007Z,73.13
2018-10-19T06:44:46.944Z,73.13
2018-10-19T06:45:46.872Z,73.13
2018-10-19T06:46:46.861Z,78.75
2018-10-19T06:47:46.690Z,78.75
2018-10-19T06:48:46.610Z,78.75
2018-10-19T06:49:46.533Z,78.75
2018-10-19T06:50:46.452Z,78.75
2018-10-19T06:51:46.370Z,84.38
2018-10-19T06:52:46.288Z,84.38
2018-10-19T06:53:46.210Z,84.38
2018-10-19T06:54:46.137Z,84.38
2018-10-19T06:55:46.053Z,90.00
2018-10-19T06:56:45.973Z,90.00
2018-10-19T06:57:45.899Z,90.00
2018-10-19T06:58:45.863Z,90.00
2018-10-19T06:59:45.737Z,95.63
2018-10-19T07:00:45.661Z,95.63
2018-10-19T07:01:45.578Z,95.63
2018-10-19T07:02:45.503Z,95.63
2018-10-19T07:03:45.421Z,95.63
2018-10-19T07:04:45.343Z,101.25
2018-10-19T07:05:45.331Z,101.25
2018-10-19T07:06:45.188Z,101.25
2018-10-19T07:07:45.126Z,101.25
2018-10-19T07:08:45.027Z,106.88
2018-10-19T07:09:44.944Z,106.88
2018-10-19T07:10:44.870Z,106.88
2018-10-19T07:11:44.786Z,106.88
2018-10-19T07:12:44.706Z,112.50
2018-10-19T07:13:44.629Z,112.50
2018-10-19T07:14:44.557Z,112.50
2018-10-19T07:15:44.523Z,112.50
2018-10-19T07:16:44.394Z,118.13
2018-10-19T07:17:44.316Z,118.13
2018-10-19T07:18:44.230Z,118.13
2018-10-19T07:19:44.152Z,118.13
2018-10-19T07:20:44.079Z,118.13
2018-10-19T07:21:44.033Z,118.13
2018-10-19T07:22:43.919Z,118.13
2018-10-19T07:23:43.836Z,118.13
2018-10-19T07:24:43.758Z,123.75
2018-10-19T07:25:43.675Z,123.75
2018-10-19T07:26:43.606Z,123.75
2018-10-19T07:27:43.522Z,123.75
2018-10-19T07:28:43.448Z,123.75
2018-10-19T07:29:43.491Z,123.75
2018-10-19T07:30:43.286Z,129.38
2018-10-19T07:31:43.260Z,129.38
2018-10-19T07:32:43.126Z,135.00
2018-10-19T07:33:43.044Z,135.00
2018-10-19T07:34:42.976Z,135.00
2018-10-19T07:35:42.889Z,135.00
2018-10-19T07:36:42.809Z,135.00
2018-10-19T07:37:42.731Z,135.00
2018-10-19T07:38:42.649Z,140.63
2018-10-19T07:39:42.583Z,140.63
2018-10-19T07:40:42.498Z,140.63
2018-10-19T07:41:42.414Z,140.63
2018-10-19T07:42:42.335Z,140.63
2018-10-19T07:43:42.258Z,146.25
2018-10-19T07:44:42.184Z,146.25
2018-10-19T07:45:42.103Z,146.25
2018-10-19T07:46:42.030Z,146.25
2018-10-19T07:47:42.038Z,151.88
2018-10-19T07:48:41.867Z,151.88
2018-10-19T07:49:41.793Z,151.88
2018-10-19T07:50:41.712Z,151.88
2018-10-19T07:51:41.631Z,151.88
2018-10-19T07:52:41.553Z,151.88
2018-10-19T07:53:41.471Z,157.50
2018-10-19T07:54:41.393Z,157.50
2018-10-19T07:55:41.312Z,157.50
2018-10-19T07:56:41.232Z,163.13
2018-10-19T07:57:41.169Z,163.13
2018-10-19T07:58:41.077Z,163.13
2018-10-19T07:59:40.998Z,163.13
2018-10-19T08:00:40.964Z,168.75
2018-10-19T08:01:40.837Z,168.75
2018-10-19T08:02:40.765Z,168.75
2018-10-19T08:03:40.685Z,174.38
2018-10-19T08:04:40.610Z,174.38
2018-10-19T08:05:40.530Z,174.38
2018-10-19T08:06:40.456Z,180.00
2018-10-19T08:07:40.371Z,180.00
2018-10-19T08:08:40.293Z,180.00
2018-10-19T08:09:40.211Z,180.00
2018-10-19T08:10:40.138Z,180.00
2018-10-19T08:11:40.088Z,185.63
2018-10-19T08:12:39.980Z,185.63
2018-10-19T08:13:39.898Z,191.25
2018-10-19T08:14:39.835Z,191.25
2018-10-19T08:15:39.742Z,191.25
2018-10-19T08:16:39.667Z,191.25
2018-10-19T08:17:39.587Z,191.25
2018-10-19T08:18:39.510Z,196.88
2018-10-19T08:19:39.427Z,196.88
2018-10-19T08:20:39.350Z,196.88
2018-10-19T08:21:39.272Z,196.88
2018-10-19T08:22:39.211Z,196.88
2018-10-19T08:23:39.116Z,202.50
2018-10-19T08:24:39.035Z,202.50
2018-10-19T08:25:38.962Z,202.50
2018-10-19T08:26:38.882Z,202.50
2018-10-19T08:27:38.811Z,202.50
2018-10-19T08:28:38.726Z,208.13
2018-10-19T08:29:38.645Z,208.13
2018-10-19T08:30:38.597Z,208.13
2018-10-19T08:31:38.487Z,208.13
2018-10-19T08:32:38.411Z,213.75
2018-10-19T08:33:38.333Z,213.75
2018-10-19T08:34:38.285Z,213.75
2018-10-19T08:35:38.175Z,219.38
2018-10-19T08:36:38.100Z,219.38
2018-10-19T08:37:38.091Z,219.38
2018-10-19T08:38:37.961Z,225.00
2018-10-19T08:39:37.873Z,225.00
2018-10-19T08:40:37.795Z,225.00
2018-10-19T08:41:37.825Z,225.00
2018-10-19T08:42:37.639Z,230.63
2018-10-19T08:43:37.610Z,230.63
2018-10-19T08:44:37.484Z,230.63
2018-10-19T08:45:37.398Z,236.25
2018-10-19T08:46:37.326Z,236.25
2018-10-19T08:47:37.288Z,241.88
2018-10-19T08:48:37.209Z,241.88
2018-10-19T08:49:37.095Z,241.88
2018-10-19T08:50:37.010Z,241.88
2018-10-19T08:51:36.934Z,241.88
2018-10-19T08:52:36.855Z,247.50
2018-10-19T08:53:36.828Z,253.13
2018-10-19T08:54:36.738Z,253.13
2018-10-19T08:55:36.623Z,253.13
2018-10-19T08:56:36.548Z,253.13
2018-10-19T08:57:36.551Z,258.75
2018-10-19T08:58:36.388Z,258.75
2018-10-19T08:59:36.328Z,258.75
2018-10-19T09:00:36.235Z,264.38
2018-10-19T09:01:36.191Z,258.75
2018-10-19T09:02:36.078Z,264.38
2018-10-19T09:03:36.083Z,270.00
2018-10-19T09:04:35.924Z,264.38
2018-10-19T09:05:35.852Z,270.00
2018-10-19T09:06:35.772Z,270.00
2018-10-19T09:07:35.693Z,270.00
2018-10-19T09:08:35.615Z,270.00
2018-10-19T09:09:35.543Z,275.63
2018-10-19T09:10:35.462Z,275.63
2018-10-19T09:11:35.396Z,281.25
2018-10-19T09:12:35.373Z,281.25
2018-10-19T09:13:35.244Z,281.25
2018-10-19T09:14:35.174Z,286.88
2018-10-19T09:15:35.076Z,286.88
2018-10-19T09:16:35.048Z,286.88
2018-10-19T09:17:34.922Z,292.50
2018-10-19T09:18:34.997Z,298.13
2018-10-19T09:19:34.764Z,292.50
2018-10-19T09:20:34.692Z,298.13
2018-10-19T09:21:34.610Z,292.50
2018-10-19T09:22:34.594Z,292.50
2018-10-19T09:23:34.456Z,292.50
2018-10-19T09:24:34.382Z,298.13
2018-10-19T09:25:34.319Z,303.75
2018-10-19T09:26:34.230Z,303.75
2018-10-19T09:27:34.146Z,309.38
2018-10-19T09:28:34.112Z,309.38
2018-10-19T09:29:34.046Z,315.00
2018-10-19T09:30:33.916Z,315.00
2018-10-19T09:31:33.847Z,320.63
2018-10-19T09:32:33.768Z,320.63
2018-10-19T09:33:33.687Z,326.25
2018-10-19T09:34:33.612Z,326.25
2018-10-19T09:35:33.593Z,326.25
2018-10-19T09:36:33.692Z,331.88
2018-10-19T09:37:33.377Z,331.88
2018-10-19T09:38:33.305Z,337.50
2018-10-19T09:39:33.225Z,337.50
2018-10-19T09:40:33.177Z,343.13
2018-10-19T09:41:33.070Z,343.13
2018-10-19T09:42:33.000Z,343.13
2018-10-19T09:43:32.917Z,348.75
2018-10-19T09:44:32.853Z,354.38
2018-10-19T09:45:32.764Z,354.38
2018-10-19T09:46:32.690Z,360.00
2018-10-19T09:47:32.615Z,365.63
2018-10-19T09:48:32.585Z,371.25
2018-10-19T09:49:32.461Z,371.25
2018-10-19T09:50:32.380Z,376.88
2018-10-19T09:51:32.310Z,376.88
2018-10-19T09:52:32.246Z,382.50
2018-10-19T09:53:32.161Z,382.50
2018-10-19T09:54:32.077Z,382.50
2018-10-19T09:55:32.007Z,382.50
2018-10-19T09:56:31.923Z,382.50
2018-10-19T09:57:39.041Z,393.75
2018-10-19T09:59:35.721Z,399.38
2018-10-19T10:00:35.595Z,405.00
2018-10-19T10:02:39.474Z,416.25
2018-10-19T10:03:39.359Z,416.25
2018-10-19T10:05:43.201Z,421.88
2018-10-19T10:06:43.098Z,427.50
2018-10-19T10:08:35.912Z,433.13
2018-10-19T10:09:35.788Z,438.75
2018-10-19T10:11:40.197Z,444.38
2018-10-19T10:12:40.015Z,455.63
2018-10-19T10:13:39.941Z,455.63
2018-10-19T10:14:39.912Z,461.25
2018-10-19T10:15:39.834Z,455.63
2018-10-19T10:16:39.712Z,500.63
2018-10-19T10:17:39.640Z,545.63
2018-10-19T10:18:39.561Z,618.75
2018-10-19T10:19:39.486Z,562.50
2018-10-19T10:20:39.410Z,511.88
2018-10-19T10:21:39.345Z,624.38
2018-10-19T10:22:39.258Z,613.13
2018-10-19T10:23:39.181Z,523.13
2018-10-19T10:24:39.136Z,523.13
2018-10-19T10:25:39.053Z,596.25
2018-10-19T10:26:38.957Z,838.13
2018-10-19T10:27:38.881Z,849.38
2018-10-19T10:28:38.807Z,590.63
2018-10-19T10:29:38.737Z,573.75
2018-10-19T10:30:38.656Z,663.75
2018-10-19T10:31:38.582Z,703.13
2018-10-19T10:32:38.505Z,568.13
2018-10-19T10:33:38.429Z,540.00
2018-10-19T10:34:38.357Z,556.88
2018-10-19T10:35:38.279Z,562.50
2018-10-19T10:36:38.209Z,573.75
2018-10-19T10:37:38.128Z,573.75
2018-10-19T10:38:38.094Z,590.63
2018-10-19T10:39:37.980Z,585.00
2018-10-19T10:40:37.914Z,573.75
2018-10-19T10:41:37.829Z,573.75
2018-10-19T10:42:37.757Z,579.38
2018-10-19T10:43:37.683Z,568.13
2018-10-19T10:44:37.627Z,579.38
2018-10-19T10:45:37.532Z,596.25
2018-10-19T10:46:37.460Z,607.50
2018-10-19T10:47:37.382Z,613.13
2018-10-19T10:48:37.315Z,618.75
2018-10-19T10:49:37.230Z,618.75
2018-10-19T10:50:37.157Z,613.13
2018-10-19T10:51:37.081Z,613.13
2018-10-19T10:52:37.007Z,613.13
2018-10-19T10:53:36.932Z,618.75
2018-10-19T10:54:36.861Z,624.38
2018-10-19T10:55:36.795Z,630.00
2018-10-19T10:56:36.711Z,635.63
2018-10-19T10:57:36.633Z,641.25
2018-10-19T10:58:36.560Z,652.50
2018-10-19T10:59:36.496Z,658.13
2018-10-19T11:00:36.414Z,663.75
2018-10-19T11:01:36.337Z,500.63
2018-10-19T11:02:36.265Z,410.63
2018-10-19T11:03:36.190Z,703.13
2018-10-19T11:04:36.113Z,770.63
2018-10-19T11:05:36.044Z,978.75
2018-10-19T11:06:35.970Z,1113.75
2018-10-19T11:07:36.059Z,1378.13
2018-10-19T11:08:35.821Z,1299.38
2018-10-19T11:09:35.745Z,1074.38
2018-10-19T11:10:35.681Z,1125.00
2018-10-19T11:11:35.596Z,1209.38
2018-10-19T11:12:35.525Z,843.75
2018-10-19T11:13:35.452Z,860.63
2018-10-19T11:14:35.380Z,871.88
2018-10-19T11:15:35.309Z,922.50
2018-10-19T11:16:35.238Z,973.13
2018-10-19T11:17:35.167Z,1771.88
2018-10-19T11:18:35.096Z,2148.75
2018-10-19T11:19:35.024Z,2283.75
2018-10-19T11:20:34.951Z,2283.75
2018-10-19T11:21:34.885Z,2317.50
2018-10-19T11:22:34.830Z,2446.88
2018-10-19T11:23:34.741Z,2480.63
2018-10-19T11:24:34.673Z,2565.00
2018-10-19T11:25:34.603Z,2705.63
2018-10-19T11:26:34.533Z,2812.50
2018-10-19T11:27:34.468Z,2835.00
2018-10-19T11:28:34.405Z,2756.25
2018-10-19T11:29:34.333Z,2705.63
2018-10-19T11:30:34.309Z,2700.00
2018-10-19T11:31:34.195Z,2745.00
2018-10-19T11:32:34.127Z,2683.13
2018-10-19T11:33:34.060Z,2621.25
2018-10-19T11:34:33.995Z,2643.75
2018-10-19T11:35:33.931Z,2632.50
2018-10-19T11:36:33.861Z,2660.63
2018-10-19T11:37:33.847Z,2795.63
2018-10-19T11:38:33.733Z,2868.75
2018-10-19T11:39:33.666Z,2857.50
2018-10-19T11:40:33.599Z,2925.00
2018-10-19T11:41:33.534Z,2941.88
2018-10-19T11:42:33.482Z,3155.63
2018-10-19T11:43:33.402Z,3206.25
2018-10-19T11:44:33.340Z,3245.63
2018-10-19T11:45:33.273Z,3127.50
2018-10-19T11:46:33.213Z,3093.75
2018-10-19T11:47:33.144Z,3161.25
2018-10-19T11:48:33.085Z,3200.63
2018-10-19T11:49:33.018Z,3133.13
2018-10-19T11:50:32.956Z,3009.38
2018-10-19T11:51:32.893Z,2880.00
2018-10-19T11:52:32.831Z,2806.88
2018-10-19T11:53:32.760Z,2925.00
2018-10-19T11:54:32.696Z,3009.38
2018-10-19T11:55:32.635Z,3172.50
2018-10-19T11:56:32.569Z,3172.50
2018-10-19T11:57:32.511Z,3268.13
2018-10-19T11:58:32.443Z,3273.75
2018-10-19T11:59:32.383Z,3172.50
2018-10-19T12:00:32.315Z,3043.13
2018-10-19T12:01:32.252Z,2925.00
2018-10-19T12:02:32.197Z,2896.88
2018-10-19T12:03:32.180Z,2986.88
2018-10-19T12:04:32.066Z,3121.88
2018-10-19T12:05:32.005Z,3183.75
2018-10-19T12:06:31.939Z,3048.75
2018-10-19T12:07:31.883Z,2868.75
2018-10-19T12:08:31.820Z,2778.75
2018-10-19T12:09:31.753Z,2683.13
2018-10-19T12:10:31.703Z,2593.13
2018-10-19T12:11:31.627Z,2103.75
2018-10-19T12:12:31.570Z,2913.75
2018-10-19T12:13:31.516Z,2930.63
2018-10-19T12:14:31.439Z,2649.38
2018-10-19T12:15:31.376Z,2525.63
2018-10-19T12:16:31.401Z,2514.38
2018-10-19T12:17:31.249Z,2643.75
2018-10-19T12:18:31.194Z,2660.63
2018-10-19T12:19:31.146Z,2632.50
2018-10-19T12:20:31.071Z,2615.63
2018-10-19T12:21:30.997Z,2520.00
2018-10-19T12:22:30.935Z,2041.88
2018-10-19T12:23:30.875Z,1788.75
2018-10-19T12:24:30.806Z,1327.50
2018-10-19T12:25:30.740Z,995.63
2018-10-19T12:26:30.677Z,787.50
2018-10-19T12:27:30.617Z,781.88
2018-10-19T12:28:30.550Z,776.25
2018-10-19T12:29:30.483Z,776.25
2018-10-19T12:30:30.429Z,765.00
2018-10-19T12:31:30.353Z,770.63
2018-10-19T12:32:30.283Z,770.63
2018-10-19T12:33:30.222Z,798.75
2018-10-19T12:34:30.156Z,776.25
2018-10-19T12:35:30.111Z,765.00
2018-10-19T12:36:30.025Z,765.00
2018-10-19T12:37:29.953Z,765.00
2018-10-19T12:38:29.892Z,770.63
2018-10-19T12:39:29.819Z,776.25
2018-10-19T12:40:29.759Z,804.38
2018-10-19T12:41:29.685Z,1226.25
2018-10-19T12:42:29.618Z,2188.13
2018-10-19T12:43:29.548Z,3082.50
2018-10-19T12:44:29.481Z,3093.75
2018-10-19T12:45:29.408Z,2896.88
2018-10-19T12:46:29.345Z,2756.25
2018-10-19T12:47:29.383Z,2801.25
2018-10-19T12:48:29.209Z,2491.88
2018-10-19T12:49:29.142Z,1895.63
2018-10-19T12:50:29.069Z,1293.75
2018-10-19T12:51:29.006Z,1006.88
2018-10-19T12:52:28.931Z,995.63
2018-10-19T12:53:28.863Z,990.00